Nearby METAR Reports

Here are local weather reports from nearby weather stations and airports.

KHFD - Hartford/Brainar, Connecticut, USA
Distance from station: NE 5mi, 8km
Updated: Tue, 06/22/21 10:53pm EDT
Overcast
Overcast
 Wind from NW
Wind: NW 8 mph , 13 km/h
Temperature: 61°F , 16°C
Dew Point: 52°F , 11°C
Humidity: 72%
Barometer: 29.88 inHg , 1011.9 hPa
Clouds: Overcast
Visibility: 10 miles , 16 km
Cloud details: Overcast 4400 ft
2021/06/23 02:53 KHFD 230253Z 32007KT 10SM OVC044 16/11 A2988 RMK AO2 SLP117 60000 T01610111 51039
KMMK - Meriden, Connecticut, USA
Distance from station: SSW 13mi, 21km
Updated: Tue, 06/22/21 10:53pm EDT
Mostly cloudy
Mostly cloudy
 Wind from NNW
Wind: NNW 6 mph , 9 km/h
Temperature: 59°F , 15°C
Dew Point: 50°F , 10°C
Humidity: 72%
Barometer: 29.89 inHg , 1012.2 hPa
Clouds: Mostly cloudy
Visibility: 10 miles , 16 km
Cloud details: Mostly cloudy 4800 ft
Mostly cloudy 6000 ft
2021/06/23 02:53 KMMK 230253Z AUTO 33005KT 10SM BKN048 BKN060 15/10 A2989 RMK AO2 SLP121 T01500100 51040
 
KBDL - Windsor Locks, Connecticut, USA
Distance from station: N 17mi, 28km
Updated: Tue, 06/22/21 10:51pm EDT
Overcast
Overcast
 Wind from WNW
Wind: WNW 13 mph , 20 km/h
Temperature: 57°F , 14°C
Dew Point: 52°F , 11°C
Humidity: 82%
Barometer: 29.87 inHg , 1011.5 hPa
Clouds: Overcast
Visibility: 10 miles , 16 km
Cloud details: Mostly cloudy 4000 ft
Overcast 5500 ft
2021/06/23 02:51 KBDL 230251Z 30011KT 10SM BKN040 OVC055 14/11 A2987 RMK AO2 SLP115 T01440111 52038
KSNC - Chester, Connecticut, USA
Distance from station: SSE 24mi, 38km
Updated: Tue, 06/22/21 11:15pm EDT
Clear
Clear
 Wind from NNW
Wind: NNW 14 mph , 22 km/h, Gust: 21 mph , 33 km/h
Temperature: 57°F , 14°C
Dew Point: 55°F , 13°C
Humidity: 94%
Barometer: 29.88 inHg , 1011.9 hPa
Clouds: Clear
Visibility: 10 miles , 16 km
2021/06/23 03:15 KSNC 230315Z AUTO 33012G18KT 10SM CLR 14/13 A2988 RMK AO2
 
KOXC - Oxford/Waterbury, Connecticut, USA
Distance from station: SW 26mi, 42km
Updated: Tue, 06/22/21 10:51pm EDT
Few Clouds
Few Clouds
 Wind from NW
Wind: NW 8 mph , 13 km/h
Temperature: 55°F , 13°C
Dew Point: 54°F , 12°C
Humidity: 94%
Barometer: 29.91 inHg , 1012.9 hPa
Clouds: Few Clouds
Visibility: 10 miles , 16 km
Cloud details: Few Clouds 6000 ft
2021/06/23 02:51 KOXC 230251Z AUTO 32007KT 10SM FEW060 13/12 A2991 RMK AO2 SLP141 T01280117 51038
KIJD - Willimantic, Connecticut, USA
Distance from station: E 28mi, 45km
Updated: Tue, 06/22/21 10:52pm EDT
Light rain, Overcast
Light rain, Overcast
 Wind from WNW
Wind: WNW 6 mph , 9 km/h
Temperature: 61°F , 16°C
Dew Point: 57°F , 14°C
Humidity: 88%
Barometer: 29.87 inHg , 1011.5 hPa
Summary: Light rain
Clouds: Overcast
Visibility: 10 miles , 16 km
Cloud details: Mostly cloudy 2200 ft
Overcast 2900 ft
2021/06/23 02:52 KIJD 230252Z AUTO 30005KT 10SM -RA BKN022 OVC029 16/14 A2987 RMK AO2 RAB01E11B31E40B44 SLP111 P0000 60001 T01560139 51049
 
KHVN - New Haven/Tweed, Connecticut, USA
Distance from station: SSW 30mi, 48km
Updated: Tue, 06/22/21 10:53pm EDT
Overcast
Overcast
 Wind from NNW
Wind: NNW 8 mph , 13 km/h, Gust: 17 mph , 28 km/h
Temperature: 63°F , 17°C
Dew Point: 54°F , 12°C
Humidity: 73%
Barometer: 29.89 inHg , 1012.2 hPa
Clouds: Overcast
Visibility: 10 miles , 16 km
Cloud details: Few Clouds 5000 ft
Overcast 7000 ft
2021/06/23 02:53 KHVN 230253Z AUTO 34007G15KT 10SM FEW050 OVC070 17/12 A2989 RMK AO2 SLP122 T01670117 51039
KBAF - Westfield, Massachusetts, USA
Distance from station: 0 33mi, 54km
Updated: Tue, 06/22/21 10:53pm EDT
Overcast
Overcast
 Wind from WNW
Wind: WNW 9 mph , 15 km/h
Temperature: 59°F , 15°C
Dew Point: 55°F , 13°C
Humidity: 88%
Barometer: 29.87 inHg , 1011.5 hPa
Clouds: Overcast
Visibility: 10 miles , 16 km
Cloud details: Partly cloudy 4000 ft
Overcast 4800 ft
2021/06/23 02:53 KBAF 230253Z 30008KT 10SM SCT040 OVC048 15/13 A2987 RMK AO2 SLP116 T01500128 51043
 
KCEF - Chicopee/Westove, Massachusetts, USA
Distance from station: NNE 37mi, 60km
Updated: Tue, 06/22/21 11:11pm EDT
Overcast
Overcast
 Wind from NW
Wind: NW 10 mph , 17 km/h
Temperature: 61°F , 16°C
Dew Point: 55°F , 13°C
Humidity: 83%
Barometer: 29.86 inHg , 1011.2 hPa
Clouds: Overcast
Visibility: 10 miles , 16 km
Cloud details: Few Clouds 2100 ft
Overcast 3100 ft
2021/06/23 03:11 KCEF 230311Z AUTO 31009KT 10SM FEW021 OVC031 16/13 A2986 RMK AO2 SLPNO
KBDR - Bridgeport, Connecticut, USA
Distance from station: SSW 42mi, 67km
Updated: Tue, 06/22/21 10:52pm EDT
Overcast
Overcast
 Wind from NW
Wind: NW 6 mph , 9 km/h
Temperature: 63°F , 17°C
Dew Point: 55°F , 13°C
Humidity: 77%
Barometer: 29.90 inHg , 1012.5 hPa
Clouds: Overcast
Visibility: 10 miles , 16 km
Cloud details: Mostly cloudy 2200 ft
Overcast 6500 ft
2021/06/23 02:52 KBDR 230252Z AUTO 32005KT 10SM BKN022 OVC065 17/13 A2990 RMK AO2 SLP125 T01670133 50025
 
KGON - Groton/New Londo, Connecticut, USA
Distance from station: SE 42mi, 68km
Updated: Tue, 06/22/21 10:56pm EDT
Overcast
Overcast
 Wind from WNW
Wind: WNW 10 mph , 17 km/h
Temperature: 61°F , 16°C
Dew Point: 57°F , 14°C
Humidity: 88%
Barometer: 29.85 inHg , 1010.8 hPa
Clouds: Overcast
Visibility: 10 miles , 16 km
Cloud details: Partly cloudy 3700 ft
Overcast 6000 ft
2021/06/23 02:56 KGON 230256Z AUTO 30009KT 10SM SCT037 OVC060 16/14 A2985 RMK AO2 SLP106 60001 T01610144 51044
KDXR - Danbury, Connecticut, USA
Distance from station: WSW 45mi, 73km
Updated: Tue, 06/22/21 10:53pm EDT
Overcast
Overcast
 Wind from calm
Wind: Calm
Temperature: 61°F , 16°C
Dew Point: 52°F , 11°C
Humidity: 72%
Barometer: 29.93 inHg , 1013.5 hPa
Clouds: Overcast
Visibility: 10 miles , 16 km
Cloud details: Mostly cloudy 2000 ft
Mostly cloudy 4200 ft
Overcast 5000 ft
2021/06/23 02:53 KDXR 230253Z AUTO 00000KT 10SM BKN020 BKN042 OVC050 16/11 A2993 RMK AO2 SLP134 T01560106 51038